createdAt,value
2019-03-20T00:02:12.269Z,7.23
2019-03-20T00:04:49.803Z,8.47
2019-03-20T00:07:14.435Z,4.40
2019-03-20T00:09:44.761Z,5.57
2019-03-20T00:12:15.286Z,6.73
2019-03-20T00:14:45.607Z,10.23
2019-03-20T00:17:15.934Z,4.07
2019-03-20T00:19:46.259Z,4.23
2019-03-20T00:22:16.580Z,6.80
2019-03-20T00:24:46.904Z,7.80
2019-03-20T00:27:17.150Z,7.23
2019-03-20T00:29:47.448Z,14.10
2019-03-20T00:32:17.674Z,8.17
2019-03-20T00:34:47.994Z,3.50
2019-03-20T00:37:18.297Z,6.30
2019-03-20T00:39:48.498Z,9.43
2019-03-20T00:42:19.581Z,15.13
2019-03-20T00:44:49.908Z,10.50
2019-03-20T00:47:20.740Z,5.43
2019-03-20T00:49:51.108Z,11.40
2019-03-20T00:52:21.492Z,7.80
2019-03-20T00:54:51.632Z,19.90
2019-03-20T00:57:23.062Z,11.03
2019-03-20T00:59:53.386Z,7.10
2019-03-20T01:02:23.710Z,11.53
2019-03-20T01:04:54.032Z,12.83
2019-03-20T01:07:24.252Z,9.13
2019-03-20T01:09:54.498Z,9.63
2019-03-20T01:12:24.907Z,3.77
2019-03-20T01:14:55.228Z,7.13
2019-03-20T01:17:25.447Z,10.30
2019-03-20T01:19:55.770Z,11.93
2019-03-20T01:22:26.100Z,14.83
2019-03-20T01:24:56.419Z,9.73
2019-03-20T01:27:26.660Z,9.87
2019-03-20T01:29:56.860Z,9.30
2019-03-20T01:32:27.184Z,5.60
2019-03-20T01:34:57.508Z,10.53
2019-03-20T01:37:27.834Z,7.30
2019-03-20T01:39:58.160Z,5.10
2019-03-20T01:42:28.480Z,8.77
2019-03-20T01:44:58.819Z,10.70
2019-03-20T01:47:29.136Z,9.40
2019-03-20T01:49:59.455Z,13.50
2019-03-20T01:52:30.016Z,4.97
2019-03-20T01:55:00.449Z,8.60
2019-03-20T01:57:30.835Z,7.53
2019-03-20T02:00:01.055Z,8.00
2019-03-20T02:02:31.284Z,12.43
2019-03-20T02:05:01.607Z,7.67
2019-03-20T02:07:31.923Z,11.93
2019-03-20T02:10:04.686Z,14.20
2019-03-20T02:12:34.980Z,5.10
2019-03-20T02:15:15.099Z,8.60
2019-03-20T02:17:47.009Z,10.03
2019-03-20T02:20:20.059Z,6.53
2019-03-20T02:22:54.254Z,6.80
2019-03-20T02:25:24.323Z,6.27
2019-03-20T02:27:54.533Z,8.37
2019-03-20T02:30:24.595Z,6.90
2019-03-20T02:32:54.774Z,7.50
2019-03-20T02:35:25.151Z,9.37
2019-03-20T02:37:55.473Z,6.67
2019-03-20T02:40:25.830Z,5.73
2019-03-20T02:42:56.953Z,7.80
2019-03-20T02:45:27.266Z,6.60
2019-03-20T02:47:57.590Z,9.43
2019-03-20T02:50:27.913Z,14.17
2019-03-20T02:52:58.243Z,9.50
2019-03-20T02:55:28.765Z,6.13
2019-03-20T02:57:59.091Z,10.30
2019-03-20T03:00:29.412Z,9.50
2019-03-20T03:02:59.738Z,9.40
2019-03-20T03:05:30.063Z,7.60
2019-03-20T03:08:00.388Z,7.03
2019-03-20T03:10:30.922Z,5.47
2019-03-20T03:13:01.316Z,14.60
2019-03-20T03:15:31.561Z,20.67
2019-03-20T03:18:01.886Z,13.10
2019-03-20T03:20:32.213Z,9.27
2019-03-20T03:23:05.603Z,13.63
2019-03-20T03:25:36.471Z,12.10
2019-03-20T03:28:07.104Z,15.53
2019-03-20T03:30:37.602Z,11.33
2019-03-20T03:33:07.946Z,8.73
2019-03-20T03:35:38.250Z,10.60
2019-03-20T03:38:08.572Z,15.03
2019-03-20T03:40:40.335Z,15.20
2019-03-20T03:43:10.653Z,8.23
2019-03-20T03:45:40.898Z,6.13
2019-03-20T03:48:11.098Z,6.30
2019-03-20T03:50:41.422Z,9.67
2019-03-20T03:53:11.767Z,8.80
2019-03-20T03:55:42.074Z,12.00
2019-03-20T03:58:12.296Z,8.30
2019-03-20T04:00:42.614Z,12.10
2019-03-20T04:03:12.943Z,7.63
2019-03-20T04:05:43.264Z,7.60
2019-03-20T04:08:13.794Z,17.67
2019-03-20T04:10:44.113Z,14.77
2019-03-20T04:13:14.642Z,7.03
2019-03-20T04:15:45.277Z,8.30
2019-03-20T04:18:17.037Z,9.77
2019-03-20T04:20:47.263Z,13.80
2019-03-20T04:23:17.590Z,9.80
2019-03-20T04:25:47.902Z,11.43
2019-03-20T04:28:18.123Z,11.90
2019-03-20T04:30:48.445Z,11.10
2019-03-20T04:33:18.788Z,12.83
2019-03-20T04:35:48.992Z,10.40
2019-03-20T04:38:19.335Z,11.93
2019-03-20T04:40:49.638Z,19.20
2019-03-20T04:43:19.761Z,15.67
2019-03-20T04:45:50.716Z,13.60
2019-03-20T04:48:21.029Z,12.00
2019-03-20T04:50:51.346Z,14.63
2019-03-20T04:53:21.685Z,9.07
2019-03-20T04:55:52.008Z,16.70
2019-03-20T04:58:22.214Z,16.80
2019-03-20T05:00:52.439Z,20.90
2019-03-20T05:03:22.764Z,15.03
2019-03-20T05:05:53.088Z,25.30
2019-03-20T05:08:23.408Z,21.63
2019-03-20T05:10:53.731Z,25.63
2019-03-20T05:13:24.054Z,153.73
2019-03-20T05:15:54.590Z,123.53
2019-03-20T05:18:24.911Z,168.67
2019-03-20T05:20:55.231Z,142.07
2019-03-20T05:23:25.555Z,116.73
2019-03-20T05:25:55.884Z,122.17
2019-03-20T05:28:26.204Z,107.03
2019-03-20T05:30:56.530Z,101.87
2019-03-20T05:33:26.755Z,84.10
2019-03-20T05:35:56.973Z,82.50
2019-03-20T05:38:27.401Z,75.37
2019-03-20T05:40:57.718Z,65.70
2019-03-20T05:43:28.055Z,60.03
2019-03-20T05:46:00.367Z,58.40
2019-03-20T05:48:30.139Z,53.83
2019-03-20T05:51:00.369Z,65.60
2019-03-20T05:53:30.773Z,54.13
2019-03-20T05:56:01.017Z,54.00
2019-03-20T05:58:31.422Z,45.87
2019-03-20T06:01:01.950Z,44.30
2019-03-20T06:03:32.274Z,48.63
2019-03-20T06:06:02.802Z,51.17
2019-03-20T06:08:33.128Z,59.33
2019-03-20T06:11:03.451Z,50.23
2019-03-20T06:13:33.785Z,54.60
2019-03-20T06:16:04.098Z,58.17
2019-03-20T06:18:34.421Z,51.87
2019-03-20T06:21:04.563Z,58.40
2019-03-20T06:23:34.968Z,73.47
2019-03-20T06:26:05.423Z,65.03
2019-03-20T06:28:35.630Z,63.57
2019-03-20T06:31:05.946Z,59.77
2019-03-20T06:33:36.263Z,72.27
2019-03-20T06:36:06.703Z,63.70
2019-03-20T06:38:36.913Z,72.13
2019-03-20T06:41:07.241Z,72.33
2019-03-20T06:43:37.768Z,62.23
2019-03-20T06:46:08.090Z,63.90
2019-03-20T06:48:39.359Z,69.90
2019-03-20T06:51:09.558Z,60.80
2019-03-20T06:53:39.913Z,62.73
2019-03-20T06:56:10.411Z,64.87
2019-03-20T06:58:40.633Z,61.60
2019-03-20T07:01:16.434Z,61.67
2019-03-20T07:03:52.751Z,71.20
2019-03-20T07:06:43.859Z,66.00
2019-03-20T07:09:25.856Z,59.90
2019-03-20T07:11:56.182Z,74.17
2019-03-20T07:14:26.505Z,63.40
2019-03-20T07:16:58.058Z,60.93
2019-03-20T07:19:28.242Z,71.20
2019-03-20T07:21:58.604Z,71.60
2019-03-20T07:24:29.131Z,83.43
2019-03-20T07:26:59.458Z,64.47
2019-03-20T07:29:29.779Z,69.20
2019-03-20T07:32:00.472Z,74.10
2019-03-20T07:34:31.562Z,93.43
2019-03-20T07:37:09.667Z,80.47
2019-03-20T07:39:44.703Z,75.83
2019-03-20T07:42:15.227Z,74.00
2019-03-20T07:44:47.108Z,89.13
2019-03-20T07:47:17.628Z,75.30
2019-03-20T07:49:47.864Z,86.23
2019-03-20T07:52:18.265Z,95.13
2019-03-20T07:54:48.585Z,87.80
2019-03-20T07:57:18.911Z,98.20
2019-03-20T07:59:49.230Z,89.33
2019-03-20T08:02:19.455Z,74.00
2019-03-20T08:04:49.983Z,91.63
2019-03-20T08:07:30.626Z,88.10
2019-03-20T08:10:01.692Z,89.73
2019-03-20T08:12:33.699Z,97.13
2019-03-20T08:15:05.583Z,96.50
2019-03-20T08:17:36.040Z,94.37
2019-03-20T08:20:09.439Z,92.20
2019-03-20T08:22:39.741Z,80.10
2019-03-20T08:25:12.483Z,108.27
2019-03-20T08:27:42.660Z,91.93
2019-03-20T08:30:17.103Z,88.57
2019-03-20T08:32:48.709Z,99.77
2019-03-20T08:35:29.609Z,94.27
2019-03-20T08:38:00.035Z,97.53
2019-03-20T08:40:30.395Z,106.00
2019-03-20T08:43:00.886Z,105.90
2019-03-20T08:45:31.221Z,105.70
2019-03-20T08:48:01.543Z,104.00
2019-03-20T08:50:32.215Z,92.10
2019-03-20T08:53:06.573Z,105.07
2019-03-20T08:55:37.014Z,103.27
2019-03-20T08:58:17.791Z,89.40
2019-03-20T09:00:56.100Z,96.83
2019-03-20T09:03:26.314Z,89.90
2019-03-20T09:05:56.639Z,93.67
2019-03-20T09:08:29.824Z,92.60
2019-03-20T09:10:59.127Z,84.53
2019-03-20T09:13:29.258Z,108.00
2019-03-20T09:15:59.475Z,89.87
2019-03-20T09:18:29.897Z,95.97
2019-03-20T09:21:00.122Z,103.77
2019-03-20T09:23:30.439Z,88.63
2019-03-20T09:26:00.771Z,91.00
2019-03-20T09:28:31.089Z,94.37
2019-03-20T09:31:01.619Z,79.77
2019-03-20T09:33:31.800Z,94.53
2019-03-20T09:36:02.068Z,84.03
2019-03-20T09:38:42.707Z,91.57
2019-03-20T09:41:04.551Z,88.63
2019-03-20T09:43:34.879Z,90.00
2019-03-20T09:46:05.205Z,78.30
2019-03-20T09:48:35.528Z,83.03
2019-03-20T09:51:06.056Z,89.87
2019-03-20T09:53:36.370Z,81.03
2019-03-20T09:56:07.214Z,91.87
2019-03-20T09:58:37.542Z,98.83
2019-03-20T10:01:07.862Z,102.97
2019-03-20T10:03:38.596Z,84.97
2019-03-20T10:06:09.025Z,88.00
2019-03-20T10:08:39.344Z,96.93
2019-03-20T10:11:09.565Z,98.17
2019-03-20T10:13:43.012Z,104.63
2019-03-20T10:16:16.430Z,100.00
2019-03-20T10:18:47.298Z,100.10
2019-03-20T10:21:17.620Z,107.27
2019-03-20T10:23:48.046Z,101.93
2019-03-20T10:26:18.371Z,105.47
2019-03-20T10:28:48.900Z,100.43
2019-03-20T10:31:19.222Z,91.13
2019-03-20T10:33:49.728Z,109.47
2019-03-20T10:36:19.916Z,98.23
2019-03-20T10:38:50.364Z,105.47
2019-03-20T10:41:20.640Z,96.50
2019-03-20T10:43:52.315Z,103.30
2019-03-20T10:46:22.806Z,99.53
2019-03-20T10:48:53.132Z,103.47
2019-03-20T10:51:23.660Z,96.40
2019-03-20T10:53:53.991Z,110.60
2019-03-20T10:56:24.516Z,98.47
2019-03-20T10:58:54.747Z,112.13
2019-03-20T11:01:25.066Z,107.90
2019-03-20T11:03:55.384Z,105.33
2019-03-20T11:06:25.707Z,105.60
2019-03-20T11:08:55.927Z,103.80
2019-03-20T11:11:27.251Z,100.10
2019-03-20T11:13:58.031Z,107.10
2019-03-20T11:16:31.205Z,108.93
2019-03-20T11:19:01.730Z,115.13
2019-03-20T11:21:31.949Z,107.90
2019-03-20T11:24:02.375Z,116.37
2019-03-20T11:26:32.704Z,106.30
2019-03-20T11:29:03.230Z,98.90
2019-03-20T11:31:34.417Z,111.33
2019-03-20T11:34:04.901Z,106.30
2019-03-20T11:36:35.228Z,99.20
2019-03-20T11:39:08.641Z,95.93
2019-03-20T11:41:38.946Z,108.97
2019-03-20T11:44:09.091Z,90.43
2019-03-20T11:46:39.598Z,99.37
2019-03-20T11:49:09.918Z,98.80
2019-03-20T11:51:40.241Z,96.53
2019-03-20T11:54:10.592Z,116.37
2019-03-20T11:56:41.094Z,89.73
2019-03-20T11:59:11.421Z,94.80
2019-03-20T12:01:42.153Z,84.60
2019-03-20T12:04:12.477Z,90.70
2019-03-20T12:06:42.812Z,84.97
2019-03-20T12:09:13.330Z,75.37
2019-03-20T12:11:46.096Z,79.27
2019-03-20T12:14:15.512Z,75.97
2019-03-20T12:16:48.934Z,87.40
2019-03-20T12:19:19.230Z,80.57
2019-03-20T12:21:49.572Z,94.33
2019-03-20T12:24:19.884Z,86.13
2019-03-20T12:26:51.390Z,82.20
2019-03-20T12:29:21.579Z,74.50
2019-03-20T12:31:52.193Z,72.00
2019-03-20T12:34:22.638Z,72.83
2019-03-20T12:36:53.016Z,71.17
2019-03-20T12:39:23.257Z,75.43
2019-03-20T12:41:53.580Z,83.80
2019-03-20T12:44:23.907Z,74.80
2019-03-20T12:46:54.230Z,60.97
2019-03-20T12:49:30.151Z,58.10
2019-03-20T12:52:06.970Z,65.17
2019-03-20T12:54:37.397Z,70.70
2019-03-20T12:57:07.925Z,59.73
2019-03-20T12:59:40.295Z,54.30
2019-03-20T13:02:13.737Z,53.50
2019-03-20T13:04:44.221Z,55.63
2019-03-20T13:07:17.175Z,56.70
2019-03-20T13:09:47.364Z,51.27
2019-03-20T13:12:17.494Z,59.67
2019-03-20T13:14:47.580Z,55.80
2019-03-20T13:17:17.883Z,53.60
2019-03-20T13:19:48.205Z,57.77
2019-03-20T13:22:18.555Z,46.70
2019-03-20T13:24:48.955Z,45.17
2019-03-20T13:27:19.427Z,46.87
2019-03-20T13:29:49.708Z,48.67
2019-03-20T13:32:20.566Z,55.30
2019-03-20T13:34:50.973Z,37.67
2019-03-20T13:37:21.296Z,52.57
2019-03-20T13:39:51.819Z,45.07
2019-03-20T13:42:22.041Z,38.77
2019-03-20T13:44:52.429Z,42.43
2019-03-20T13:47:22.689Z,39.13
2019-03-20T13:49:52.842Z,43.90
2019-03-20T13:52:23.060Z,33.90
2019-03-20T13:54:53.277Z,33.80
2019-03-20T13:57:23.783Z,33.00
2019-03-20T13:59:54.130Z,37.63
2019-03-20T14:02:24.539Z,43.43
2019-03-20T14:04:54.861Z,34.00
2019-03-20T14:07:25.182Z,35.73
2019-03-20T14:09:55.508Z,29.83
2019-03-20T14:12:25.955Z,27.43
2019-03-20T14:14:56.117Z,27.10
2019-03-20T14:17:26.202Z,29.80
2019-03-20T14:19:56.455Z,26.40
2019-03-20T14:22:26.713Z,30.97
2019-03-20T14:24:57.252Z,25.90
2019-03-20T14:27:27.470Z,23.77
2019-03-20T14:29:57.889Z,25.83
2019-03-20T14:32:28.220Z,23.43
2019-03-20T14:34:58.542Z,26.30
2019-03-20T14:37:28.863Z,28.87
2019-03-20T14:40:00.368Z,30.80
2019-03-20T14:42:30.767Z,21.30
2019-03-20T14:45:00.898Z,24.03
2019-03-20T14:47:41.625Z,32.00
2019-03-20T14:50:03.069Z,31.30
2019-03-20T14:52:33.469Z,30.63
2019-03-20T14:55:04.413Z,33.77
2019-03-20T14:57:34.833Z,20.80
2019-03-20T15:00:08.359Z,26.13
2019-03-20T15:02:38.552Z,30.83
2019-03-20T15:05:09.394Z,30.17
2019-03-20T15:07:39.919Z,20.40
2019-03-20T15:10:15.772Z,37.07
2019-03-20T15:12:46.301Z,31.67
2019-03-20T15:15:38.640Z,23.73
2019-03-20T15:18:08.965Z,45.93
2019-03-20T15:20:39.289Z,30.00
2019-03-20T15:23:09.616Z,19.97
2019-03-20T15:25:40.143Z,35.17
2019-03-20T15:28:10.682Z,30.90
2019-03-20T15:30:42.623Z,20.60
2019-03-20T15:33:13.920Z,67.40
2019-03-20T15:35:45.360Z,63.73
2019-03-20T15:38:15.755Z,40.83
2019-03-20T15:40:55.706Z,36.23
2019-03-20T15:43:20.875Z,38.27
2019-03-20T15:45:51.444Z,32.40
2019-03-20T15:48:23.632Z,38.20
2019-03-20T15:50:57.971Z,30.47
2019-03-20T15:53:28.458Z,30.53
2019-03-20T15:55:58.882Z,31.80
2019-03-20T15:58:29.408Z,29.10
2019-03-20T16:00:59.734Z,27.80
2019-03-20T16:03:32.922Z,32.10
2019-03-20T16:06:03.244Z,27.53
2019-03-20T16:08:34.942Z,26.90
2019-03-20T16:11:06.889Z,27.20
2019-03-20T16:13:37.327Z,26.40
2019-03-20T16:16:07.616Z,20.60
2019-03-20T16:18:37.938Z,26.13
2019-03-20T16:21:11.053Z,22.80
2019-03-20T16:23:41.864Z,27.80
2019-03-20T16:26:16.622Z,23.53
2019-03-20T16:29:07.021Z,24.53
2019-03-20T16:31:43.231Z,28.43
2019-03-20T16:34:18.349Z,22.53
2019-03-20T16:36:58.521Z,30.03
2019-03-20T16:39:36.859Z,33.50
2019-03-20T16:42:17.122Z,23.63
2019-03-20T16:44:48.075Z,27.60
2019-03-20T16:47:18.574Z,22.63
2019-03-20T16:49:48.753Z,22.63
2019-03-20T16:52:19.627Z,29.90
2019-03-20T16:54:50.161Z,23.17
2019-03-20T16:57:21.870Z,24.10
2019-03-20T16:59:52.447Z,16.30
2019-03-20T17:02:22.775Z,19.83
2019-03-20T17:04:53.095Z,26.80
2019-03-20T17:07:23.319Z,28.47
2019-03-20T17:09:53.643Z,30.77
2019-03-20T17:12:24.276Z,21.93
2019-03-20T17:14:54.923Z,23.30
2019-03-20T17:17:25.581Z,24.60
2019-03-20T17:19:59.310Z,26.83
2019-03-20T17:22:30.383Z,29.50
2019-03-20T17:25:00.625Z,21.73
2019-03-20T17:27:42.813Z,33.07
2019-03-20T17:30:36.896Z,25.27
2019-03-20T17:33:09.475Z,23.10
2019-03-20T17:35:50.035Z,27.53
2019-03-20T17:38:35.367Z,28.77
2019-03-20T17:41:15.249Z,22.63
2019-03-20T17:43:45.788Z,30.70
2019-03-20T17:46:17.428Z,26.97
2019-03-20T17:48:48.006Z,20.10
2019-03-20T17:51:18.491Z,32.73
2019-03-20T17:53:48.999Z,36.07
2019-03-20T17:56:19.601Z,29.03
2019-03-20T17:58:50.019Z,27.43
2019-03-20T18:01:20.431Z,34.40
2019-03-20T18:03:50.923Z,24.00
2019-03-20T18:06:21.434Z,34.03
2019-03-20T18:08:52.470Z,30.53
2019-03-20T18:11:23.034Z,32.90
2019-03-20T18:13:53.763Z,30.27
2019-03-20T18:16:27.522Z,32.50
2019-03-20T18:18:58.504Z,29.60
2019-03-20T18:21:30.351Z,28.33
2019-03-20T18:24:01.893Z,20.30
2019-03-20T18:26:32.328Z,24.00
2019-03-20T18:29:06.371Z,26.17
2019-03-20T18:31:45.907Z,34.77
2019-03-20T18:34:25.095Z,27.00
2019-03-20T18:37:04.204Z,29.00
2019-03-20T18:39:44.527Z,23.80
2019-03-20T18:45:53.762Z,30.87
2019-03-20T18:48:29.726Z,31.60
2019-03-20T18:51:13.799Z,23.00
2019-03-20T18:53:47.704Z,26.93
2019-03-20T18:56:19.504Z,32.60
2019-03-20T18:58:51.886Z,22.77
2019-03-20T19:01:25.422Z,23.53
2019-03-20T19:03:56.211Z,31.73
2019-03-20T19:06:31.605Z,24.83
2019-03-20T19:09:06.138Z,34.50
2019-03-20T19:11:38.401Z,32.43
2019-03-20T19:14:09.285Z,28.97
2019-03-20T19:16:41.185Z,26.20
2019-03-20T19:19:13.082Z,36.40
2019-03-20T19:21:43.421Z,32.00
2019-03-20T19:24:14.061Z,34.30
2019-03-20T19:26:44.530Z,38.73
2019-03-20T19:29:15.799Z,45.90
2019-03-20T19:31:46.026Z,37.63
2019-03-20T19:34:16.287Z,38.63
2019-03-20T19:36:46.742Z,43.33
2019-03-20T19:39:17.489Z,37.70
2019-03-20T19:41:48.357Z,35.60
2019-03-20T19:44:20.085Z,34.50
2019-03-20T19:46:50.757Z,46.77
2019-03-20T19:49:21.185Z,56.73
2019-03-20T19:51:51.807Z,49.00
2019-03-20T19:54:22.084Z,49.83
2019-03-20T19:56:52.406Z,52.10
2019-03-20T19:59:22.945Z,57.43
2019-03-20T20:01:53.188Z,50.63
2019-03-20T20:04:23.490Z,53.27
2019-03-20T20:06:54.011Z,48.30
2019-03-20T20:09:24.324Z,43.83
2019-03-20T20:11:55.791Z,49.60
2019-03-20T20:14:29.706Z,57.07
2019-03-20T20:17:03.958Z,58.40
2019-03-20T20:19:34.336Z,48.30
2019-03-20T20:22:04.668Z,56.00
2019-03-20T20:24:35.175Z,66.73
2019-03-20T20:27:05.715Z,53.63
2019-03-20T20:29:36.045Z,62.93
2019-03-20T20:32:06.364Z,66.83
2019-03-20T20:34:36.705Z,67.50
2019-03-20T20:37:12.423Z,86.67
2019-03-20T20:39:43.220Z,71.40
2019-03-20T20:42:15.029Z,68.27
2019-03-20T20:44:45.580Z,69.10
2019-03-20T20:47:16.071Z,78.90
2019-03-20T20:49:47.555Z,74.60
2019-03-20T20:52:19.908Z,65.53
2019-03-20T20:54:51.358Z,78.63
2019-03-20T20:57:22.441Z,67.40
2019-03-20T20:59:53.815Z,71.23
2019-03-20T21:02:24.179Z,64.83
2019-03-20T21:04:54.470Z,69.93
2019-03-20T21:07:26.612Z,62.50
2019-03-20T21:09:57.404Z,67.27
2019-03-20T21:12:28.136Z,54.10
2019-03-20T21:14:58.869Z,62.77
2019-03-20T21:17:32.090Z,69.40
2019-03-20T21:20:02.930Z,58.20
2019-03-20T21:22:36.214Z,65.27
2019-03-20T21:25:07.041Z,54.53
2019-03-20T21:28:05.918Z,68.17
2019-03-20T21:30:41.875Z,69.93
2019-03-20T21:33:33.090Z,59.93
2019-03-20T21:36:21.354Z,59.43
2019-03-20T21:38:51.695Z,66.13
2019-03-20T21:41:30.792Z,67.50
2019-03-20T21:44:15.448Z,57.77
2019-03-20T21:46:48.692Z,62.17
2019-03-20T21:49:19.120Z,60.27
2019-03-20T21:51:49.420Z,73.53
2019-03-20T21:54:39.071Z,69.87
2019-03-20T21:57:20.990Z,66.60
2019-03-20T22:00:06.544Z,61.73
2019-03-20T22:02:46.393Z,77.37
2019-03-20T22:05:23.367Z,54.20
2019-03-20T22:07:54.004Z,55.60
2019-03-20T22:10:30.268Z,58.87
2019-03-20T22:13:17.817Z,56.77
2019-03-20T22:16:01.017Z,63.20
2019-03-20T22:19:03.089Z,59.23
2019-03-20T22:22:00.444Z,65.10
2019-03-20T22:24:48.591Z,70.13
2019-03-20T22:27:30.590Z,59.80
2019-03-20T22:30:02.210Z,70.33
2019-03-20T22:32:51.919Z,74.17
2019-03-20T22:35:28.181Z,58.43
2019-03-20T22:38:00.108Z,69.73
2019-03-20T22:41:00.471Z,69.97
2019-03-20T22:43:33.663Z,67.77
2019-03-20T22:46:40.130Z,74.63
2019-03-20T22:49:47.015Z,70.67
2019-03-20T22:52:31.686Z,78.50
2019-03-20T22:55:27.495Z,68.90
2019-03-20T22:58:20.349Z,91.60
2019-03-20T23:00:53.845Z,76.60
2019-03-20T23:03:35.385Z,76.17
2019-03-20T23:06:06.414Z,73.70
2019-03-20T23:08:36.048Z,76.60
2019-03-20T23:11:05.679Z,76.73
2019-03-20T23:13:41.439Z,70.43
2019-03-20T23:16:09.889Z,67.23
2019-03-20T23:18:39.604Z,66.10
2019-03-20T23:21:09.388Z,65.57
2019-03-20T23:23:39.764Z,72.77
2019-03-20T23:26:09.561Z,78.40
2019-03-20T23:28:40.219Z,74.70
2019-03-20T23:31:09.917Z,70.03
2019-03-20T23:33:39.623Z,73.00
2019-03-20T23:36:09.278Z,67.63
2019-03-20T23:38:38.977Z,67.20
2019-03-20T23:41:08.845Z,76.17
2019-03-20T23:43:38.658Z,82.20
2019-03-20T23:46:08.449Z,73.33
2019-03-20T23:48:43.744Z,64.17
2019-03-20T23:51:19.128Z,72.27
2019-03-20T23:53:50.956Z,79.70
2019-03-20T23:56:21.146Z,70.80
2019-03-20T23:58:50.837Z,67.23
